Startpagina
METAR-TAF:

METAR-TAF

Vliegvelden :

Djibouti, Djibouti

Luchthaven Ambouli Internationaal

breedte: 11-33N, lengte: 043-10E, hoogte: 49 m

Actueel weer

Dit bericht is 1 uur en het 32 minuten geleden gemaakt, om 11:00 UTC
Wind 12 kt uit het oosten
Temperatuur 31°C
Vochtigheid 71%
Druk 1013 hPa
Zicht 10 km of meer
Verspreide wolken op 2300 ft
Verspreide wolken op 13300 ft

METAR: HDAM 271100Z 08012KT 9999 SCT023 SCT133 31/25 Q1013

Tijdstip: 15:32 (12:32 UTC)

Verwachting

Dit bericht is 1 uur en het 32 minuten geleden gemaakt, om 11:00 UTC
Verwachting geldig van 27 om 12 UTC tot 28 om 12 UTC
Wind 10 kt uit het oosten
Verspreide wolken op 2000 ft
Wijzigt naar
van 27 om 15 UTC tot 27 om 18 UTC
Wind 3 kt uit variabele richting
Weinig wolken op 2000 ft
Wijzigt naar
van 28 om 00 UTC tot 28 om 12 UTC
Wind kt uit het noorden
Verspreide wolken op 2000 ft
regen

TAF: HDAM 271100Z 2712/2812 10010KT 9/9 SCT020 BECMG 2715/2718 VRB03KT FEW020 BECMG 2800/2812 00000KT RA SCT020

Waarnemingen en weersverwachtingen van meer dan 4000 vliegvelden (METAR en TAF).

De beschikbare stations zijn de gele en rode punten op de kaart.

Ga met uw muis naar het station om de naam te zien.

Klik dan om waarnemingen en weersverwachtingen te zien.

kaart wijzigen: klik op de groene knoppen met een zwart kruis om in te zoomen, op de groene knop met een streepje om uit te zoomen of op de groene pijlen voor aangrenzende kaarten.


METAR-TAF: